Terminal Aerodrome Forecast
Issued by NWS St Louis, MO

Home | Current Version | Previous Version | Text Only | Print | Product List | Glossary Off
Versions: 1 2 3 4 5 6 7 8 9 10 11 12 13 14 15 16 17 18 19 20 21 22 23 24 25

271
FTUS43 KLSX 281140
TAFSTL
TAF
KSTL 281140Z 2812/2918 10009KT P6SM OVC090
     FM281400 12008KT P6SM VCSH OVC060
     FM281900 13011KT P6SM BKN035
     FM282100 14010KT P6SM VCTS OVC025CB
     FM290000 17005KT P6SM OVC025
     FM290600 03004KT 4SM -SHRA VCTS OVC010CB
     FM291000 13009KT 3SM RA OVC009=

USA.gov is the U.S. government's official web portal to all federal, state and local government web resources and services.